createdAt,value
2023-07-18T00:01:01.901Z,18.69
2023-07-18T00:03:04.856Z,18.69
2023-07-18T00:05:13.112Z,18.67
2023-07-18T00:07:16.353Z,18.67
2023-07-18T00:09:19.491Z,18.66
2023-07-18T00:11:23.794Z,18.63
2023-07-18T00:13:26.817Z,18.59
2023-07-18T00:15:29.971Z,18.57
2023-07-18T00:17:32.889Z,18.55
2023-07-18T00:19:36.103Z,18.53
2023-07-18T00:21:40.593Z,18.51
2023-07-18T00:23:43.917Z,18.47
2023-07-18T00:25:47.050Z,18.42
2023-07-18T00:27:52.158Z,18.39
2023-07-18T00:29:56.855Z,18.32
2023-07-18T00:31:59.994Z,18.24
2023-07-18T00:34:04.301Z,18.20
2023-07-18T00:36:08.149Z,18.16
2023-07-18T00:38:12.873Z,18.15
2023-07-18T00:40:16.585Z,18.13
2023-07-18T00:42:19.745Z,18.11
2023-07-18T00:44:24.558Z,18.08
2023-07-18T00:46:27.973Z,18.09
2023-07-18T00:48:33.230Z,18.10
2023-07-18T00:50:54.820Z,18.05
2023-07-18T00:52:58.303Z,18.00
2023-07-18T00:55:03.179Z,17.93
2023-07-18T00:57:08.524Z,17.87
2023-07-18T00:59:13.104Z,17.84
2023-07-18T01:01:16.331Z,17.85
2023-07-18T01:03:19.826Z,17.87
2023-07-18T01:05:23.436Z,17.87
2023-07-18T01:07:26.771Z,17.80
2023-07-18T01:09:29.823Z,17.72
2023-07-18T01:11:35.578Z,17.63
2023-07-18T01:13:38.662Z,17.58
2023-07-18T01:15:44.367Z,17.57
2023-07-18T01:17:48.797Z,17.57
2023-07-18T01:19:51.882Z,17.56
2023-07-18T01:21:56.333Z,17.58
2023-07-18T01:23:58.427Z,17.59
2023-07-18T01:26:01.586Z,17.56
2023-07-18T01:28:07.528Z,17.48
2023-07-18T01:30:11.384Z,17.43
2023-07-18T01:32:14.503Z,17.40
2023-07-18T01:34:17.593Z,17.41
2023-07-18T01:36:20.745Z,17.37
2023-07-18T01:38:30.213Z,17.32
2023-07-18T01:40:33.389Z,17.27
2023-07-18T01:42:36.872Z,17.21
2023-07-18T01:44:40.169Z,17.14
2023-07-18T01:46:43.452Z,17.11
2023-07-18T01:48:47.302Z,17.10
2023-07-18T01:50:50.454Z,17.09
2023-07-18T01:52:53.572Z,17.10
2023-07-18T01:55:00.248Z,17.09
2023-07-18T01:57:03.344Z,17.10
2023-07-18T01:59:07.272Z,17.09
2023-07-18T02:01:10.962Z,17.09
2023-07-18T02:03:14.328Z,17.07
2023-07-18T02:05:19.232Z,17.00
2023-07-18T02:07:22.364Z,16.97
2023-07-18T02:09:24.461Z,16.92
2023-07-18T02:11:29.057Z,16.88
2023-07-18T02:13:31.242Z,16.93
2023-07-18T02:15:34.707Z,16.94
2023-07-18T02:17:41.366Z,16.92
2023-07-18T02:19:44.587Z,16.91
2023-07-18T02:21:47.710Z,16.91
2023-07-18T02:23:50.858Z,16.90
2023-07-18T02:25:54.222Z,16.89
2023-07-18T02:27:58.870Z,16.88
2023-07-18T02:30:09.843Z,16.84
2023-07-18T02:32:12.157Z,16.79
2023-07-18T02:34:15.327Z,16.78
2023-07-18T02:36:19.285Z,16.76
2023-07-18T02:38:22.450Z,16.70
2023-07-18T02:40:28.060Z,16.65
2023-07-18T02:42:32.941Z,16.62
2023-07-18T02:44:37.982Z,16.56
2023-07-18T02:46:41.084Z,16.51
2023-07-18T02:48:44.477Z,16.50
2023-07-18T02:50:47.533Z,16.44
2023-07-18T02:52:49.647Z,16.39
2023-07-18T02:54:52.816Z,16.37
2023-07-18T02:56:57.288Z,16.33
2023-07-18T02:59:00.380Z,16.35
2023-07-18T03:01:05.318Z,16.34
2023-07-18T03:03:08.769Z,16.31
2023-07-18T03:05:12.130Z,16.27
2023-07-18T03:07:18.865Z,16.22
2023-07-18T03:09:23.419Z,16.18
2023-07-18T03:11:26.758Z,16.19
2023-07-18T03:13:30.400Z,16.21
2023-07-18T03:15:33.487Z,16.24
2023-07-18T03:17:37.981Z,16.21
2023-07-18T03:19:41.082Z,16.12
2023-07-18T03:21:44.762Z,16.08
2023-07-18T03:23:48.038Z,16.08
2023-07-18T03:25:51.133Z,16.11
2023-07-18T03:27:54.273Z,16.10
2023-07-18T03:29:57.380Z,16.07
2023-07-18T03:32:01.901Z,16.04
2023-07-18T03:34:06.582Z,16.01
2023-07-18T03:36:09.670Z,16.00
2023-07-18T03:38:13.012Z,16.02
2023-07-18T03:40:18.079Z,16.00
2023-07-18T03:42:20.173Z,15.95
2023-07-18T03:44:23.300Z,15.94
2023-07-18T03:46:26.799Z,15.99
2023-07-18T03:48:29.906Z,15.99
2023-07-18T03:50:34.368Z,15.98
2023-07-18T03:52:36.522Z,15.91
2023-07-18T03:54:39.913Z,15.86
2023-07-18T03:56:43.287Z,15.80
2023-07-18T03:58:46.439Z,15.76
2023-07-18T04:00:49.568Z,15.78
2023-07-18T04:02:53.109Z,15.84
2023-07-18T04:04:56.326Z,15.89
2023-07-18T04:07:00.855Z,15.92
2023-07-18T04:09:04.401Z,15.94
2023-07-18T04:11:07.508Z,15.94
2023-07-18T04:13:10.597Z,15.97
2023-07-18T04:15:14.899Z,15.95
2023-07-18T04:17:18.268Z,15.94
2023-07-18T04:19:21.429Z,15.95
2023-07-18T04:21:25.165Z,15.98
2023-07-18T04:23:29.653Z,16.03
2023-07-18T04:25:36.421Z,16.08
2023-07-18T04:27:39.548Z,16.11
2023-07-18T04:29:42.619Z,16.13
2023-07-18T04:31:45.778Z,16.15
2023-07-18T04:33:49.530Z,16.18
2023-07-18T04:35:53.034Z,16.23
2023-07-18T04:37:56.328Z,16.28
2023-07-18T04:40:00.825Z,16.33
2023-07-18T04:42:03.128Z,16.39
2023-07-18T04:44:06.441Z,16.43
2023-07-18T04:46:09.657Z,16.50
2023-07-18T04:48:14.631Z,16.55
2023-07-18T04:50:17.097Z,16.59
2023-07-18T04:52:20.427Z,16.62
2023-07-18T04:54:23.582Z,16.66
2023-07-18T04:56:28.094Z,16.71
2023-07-18T04:58:31.212Z,16.75
2023-07-18T05:00:33.522Z,16.81
2023-07-18T05:02:36.609Z,16.85
2023-07-18T05:04:40.348Z,16.86
2023-07-18T05:06:43.577Z,16.84
2023-07-18T05:08:46.614Z,16.87
2023-07-18T05:10:49.954Z,16.96
2023-07-18T05:12:55.382Z,17.05
2023-07-18T05:14:57.589Z,17.12
2023-07-18T05:17:01.075Z,17.18
2023-07-18T05:19:04.235Z,17.28
2023-07-18T05:21:07.406Z,17.34
2023-07-18T05:23:10.614Z,17.39
2023-07-18T05:25:15.669Z,17.45
2023-07-18T05:27:18.965Z,17.52
2023-07-18T05:29:23.643Z,17.56
2023-07-18T05:31:26.878Z,17.62
2023-07-18T05:33:30.045Z,17.71
2023-07-18T05:35:33.134Z,17.81
2023-07-18T05:37:36.455Z,17.91
2023-07-18T05:39:39.507Z,17.96
2023-07-18T05:41:42.750Z,18.06
2023-07-18T05:43:45.780Z,18.17
2023-07-18T05:45:51.234Z,18.34
2023-07-18T05:47:54.531Z,18.52
2023-07-18T05:49:57.634Z,18.79
2023-07-18T05:52:00.878Z,19.05
2023-07-18T05:54:05.401Z,19.24
2023-07-18T05:56:09.021Z,19.63
2023-07-18T05:58:12.124Z,20.03
2023-07-18T06:00:16.517Z,20.41
2023-07-18T06:02:22.488Z,20.76
2023-07-18T06:04:25.669Z,21.07
2023-07-18T06:06:28.912Z,21.29
2023-07-18T06:08:32.236Z,21.33
2023-07-18T06:10:35.619Z,21.65
2023-07-18T06:12:38.838Z,22.03
2023-07-18T06:14:41.030Z,22.39
2023-07-18T06:16:44.145Z,22.72
2023-07-18T06:18:48.856Z,23.03
2023-07-18T06:20:52.350Z,23.29
2023-07-18T06:22:54.940Z,23.54
2023-07-18T06:24:58.132Z,23.75
2023-07-18T06:27:01.278Z,23.97
2023-07-18T06:29:04.375Z,24.15
2023-07-18T06:31:07.821Z,24.25
2023-07-18T06:33:11.056Z,24.34
2023-07-18T06:35:23.813Z,24.43
2023-07-18T06:37:27.347Z,24.49
2023-07-18T06:39:31.264Z,24.57
2023-07-18T06:41:34.540Z,24.75
2023-07-18T06:43:39.754Z,24.98
2023-07-18T06:45:44.377Z,25.16
2023-07-18T06:47:47.617Z,25.30
2023-07-18T06:49:50.675Z,25.51
2023-07-18T06:51:55.162Z,25.72
2023-07-18T06:53:58.485Z,25.93
2023-07-18T06:56:01.626Z,25.98
2023-07-18T06:58:05.176Z,26.19
2023-07-18T07:00:12.734Z,26.43
2023-07-18T07:02:15.920Z,26.60
2023-07-18T07:04:19.969Z,26.83
2023-07-18T07:06:24.953Z,26.97
2023-07-18T07:08:30.669Z,27.06
2023-07-18T07:10:34.468Z,27.09
2023-07-18T07:12:37.853Z,27.19
2023-07-18T07:14:41.366Z,27.32
2023-07-18T07:16:44.490Z,27.54
2023-07-18T07:18:50.455Z,27.77
2023-07-18T07:20:54.802Z,27.91
2023-07-18T07:22:58.279Z,28.06
2023-07-18T07:25:04.238Z,28.20
2023-07-18T07:27:08.475Z,28.38
2023-07-18T07:29:12.188Z,28.56
2023-07-18T07:31:16.231Z,28.62
2023-07-18T07:33:20.120Z,28.57
2023-07-18T07:35:23.614Z,28.58
2023-07-18T07:37:25.878Z,28.63
2023-07-18T07:39:29.149Z,28.74
2023-07-18T07:41:33.618Z,28.79
2023-07-18T07:43:36.781Z,28.90
2023-07-18T07:45:40.058Z,28.96
2023-07-18T07:47:44.022Z,29.06
2023-07-18T07:49:46.174Z,29.10
2023-07-18T07:51:49.234Z,29.23
2023-07-18T07:53:52.291Z,29.23
2023-07-18T07:55:55.389Z,29.15
2023-07-18T07:57:59.864Z,29.17
2023-07-18T08:00:03.178Z,29.26
2023-07-18T08:02:09.997Z,29.43
2023-07-18T08:04:13.460Z,29.57
2023-07-18T08:06:16.652Z,29.67
2023-07-18T08:08:20.019Z,29.65
2023-07-18T08:10:23.301Z,29.79
2023-07-18T08:12:26.528Z,29.99
2023-07-18T08:14:30.137Z,30.16
2023-07-18T08:16:33.378Z,30.15
2023-07-18T08:18:37.501Z,30.21
2023-07-18T08:20:40.632Z,30.32
2023-07-18T08:22:43.811Z,30.40
2023-07-18T08:24:46.968Z,30.33
2023-07-18T08:26:50.294Z,30.37
2023-07-18T08:28:53.667Z,30.23
2023-07-18T08:30:58.286Z,30.25
2023-07-18T08:33:01.581Z,30.31
2023-07-18T08:35:05.111Z,30.43
2023-07-18T08:37:10.701Z,30.48
2023-07-18T08:39:13.983Z,30.66
2023-07-18T08:41:17.767Z,30.69
2023-07-18T08:43:21.320Z,30.87
2023-07-18T08:45:25.237Z,30.89
2023-07-18T08:47:29.742Z,30.80
2023-07-18T08:49:36.180Z,30.69
2023-07-18T08:51:39.669Z,30.74
2023-07-18T08:53:42.032Z,30.81
2023-07-18T08:55:45.872Z,30.97
2023-07-18T08:57:49.033Z,31.05
2023-07-18T08:59:52.815Z,31.05
2023-07-18T09:01:56.296Z,31.04
2023-07-18T09:04:01.539Z,31.12
2023-07-18T09:06:05.534Z,31.18
2023-07-18T09:08:08.978Z,31.29
2023-07-18T09:10:12.215Z,31.24
2023-07-18T09:12:15.859Z,31.27
2023-07-18T09:14:24.784Z,31.33
2023-07-18T09:16:27.863Z,31.35
2023-07-18T09:18:30.904Z,31.33
2023-07-18T09:20:35.587Z,31.37
2023-07-18T09:22:40.871Z,31.42
2023-07-18T09:24:46.669Z,31.38
2023-07-18T09:26:50.553Z,31.25
2023-07-18T09:28:53.765Z,31.14
2023-07-18T09:30:57.025Z,31.01
2023-07-18T09:33:01.216Z,30.88
2023-07-18T09:35:05.470Z,30.76
2023-07-18T09:37:10.167Z,30.79
2023-07-18T09:39:14.076Z,30.81
2023-07-18T09:41:18.515Z,31.00
2023-07-18T09:43:22.954Z,31.10
2023-07-18T09:45:26.507Z,31.12
2023-07-18T09:47:31.486Z,31.13
2023-07-18T09:49:35.760Z,31.17
2023-07-18T09:51:39.799Z,31.25
2023-07-18T09:53:47.186Z,31.27
2023-07-18T09:55:50.805Z,31.35
2023-07-18T09:57:56.866Z,31.41
2023-07-18T10:00:03.846Z,31.46
2023-07-18T10:02:12.574Z,31.57
2023-07-18T10:04:15.923Z,31.60
2023-07-18T10:06:19.102Z,31.45
2023-07-18T10:08:23.017Z,31.43
2023-07-18T10:10:27.629Z,31.09
2023-07-18T10:12:33.997Z,30.86
2023-07-18T10:14:50.581Z,30.75
2023-07-18T10:16:56.034Z,30.67
2023-07-18T10:18:59.222Z,30.57
2023-07-18T10:21:02.478Z,30.32
2023-07-18T10:23:05.833Z,30.01
2023-07-18T10:25:10.140Z,29.89
2023-07-18T10:27:13.653Z,29.88
2023-07-18T10:29:17.141Z,29.83
2023-07-18T10:31:38.719Z,29.84
2023-07-18T10:34:10.381Z,29.82
2023-07-18T10:36:25.663Z,29.82
2023-07-18T10:38:36.675Z,29.73
2023-07-18T10:40:41.015Z,29.60
2023-07-18T10:42:46.952Z,29.51
2023-07-18T10:44:49.357Z,29.43
2023-07-18T10:46:52.734Z,29.38
2023-07-18T10:48:55.843Z,29.26
2023-07-18T10:50:58.997Z,29.14
2023-07-18T10:53:03.708Z,28.98
2023-07-18T10:55:08.114Z,28.68
2023-07-18T10:57:11.535Z,28.48
2023-07-18T10:59:15.872Z,28.42
2023-07-18T11:01:19.435Z,28.50
2023-07-18T11:03:23.857Z,28.80
2023-07-18T11:05:27.234Z,29.11
2023-07-18T11:07:36.293Z,29.24
2023-07-18T11:09:39.491Z,29.24
2023-07-18T11:11:42.668Z,29.33
2023-07-18T11:13:46.227Z,29.41
2023-07-18T11:15:50.758Z,29.47
2023-07-18T11:17:54.964Z,29.48
2023-07-18T11:19:58.906Z,29.51
2023-07-18T11:22:01.132Z,29.55
2023-07-18T11:24:04.377Z,29.51
2023-07-18T11:26:15.213Z,29.45
2023-07-18T11:28:18.403Z,29.29
2023-07-18T11:30:23.808Z,29.16
2023-07-18T11:32:42.003Z,29.04
2023-07-18T11:34:44.301Z,28.90
2023-07-18T11:36:48.214Z,28.79
2023-07-18T11:38:51.800Z,28.74
2023-07-18T11:40:54.118Z,28.70
2023-07-18T11:42:59.207Z,28.68
2023-07-18T11:45:02.572Z,28.66
2023-07-18T11:47:12.177Z,28.62
2023-07-18T11:49:17.385Z,28.59
2023-07-18T11:51:20.720Z,28.55
2023-07-18T11:53:27.741Z,28.47
2023-07-18T11:55:32.022Z,28.41
2023-07-18T11:57:35.336Z,28.31
2023-07-18T11:59:38.625Z,28.31
2023-07-18T12:01:41.862Z,28.35
2023-07-18T12:03:45.429Z,28.39
2023-07-18T12:05:50.160Z,28.44
2023-07-18T12:07:53.556Z,28.49
2023-07-18T12:09:56.705Z,28.55
2023-07-18T12:11:59.852Z,28.63
2023-07-18T12:14:05.662Z,28.72
2023-07-18T12:16:09.080Z,28.83
2023-07-18T12:18:13.687Z,28.95
2023-07-18T12:20:16.913Z,29.06
2023-07-18T12:22:21.424Z,29.11
2023-07-18T12:24:24.526Z,29.15
2023-07-18T12:26:27.779Z,29.20
2023-07-18T12:28:31.108Z,29.24
2023-07-18T12:30:35.350Z,29.30
2023-07-18T12:32:38.932Z,29.38
2023-07-18T12:34:43.029Z,29.40
2023-07-18T12:36:46.161Z,29.39
2023-07-18T12:38:50.662Z,29.37
2023-07-18T12:40:53.823Z,29.39
2023-07-18T12:42:56.991Z,29.47
2023-07-18T12:45:00.334Z,29.49
2023-07-18T12:47:03.728Z,29.46
2023-07-18T12:49:08.001Z,29.52
2023-07-18T12:51:11.498Z,29.61
2023-07-18T12:53:14.796Z,29.68
2023-07-18T12:55:19.369Z,29.67
2023-07-18T12:57:22.463Z,29.74
2023-07-18T12:59:25.978Z,29.77
2023-07-18T13:01:29.159Z,29.81
2023-07-18T13:03:34.220Z,29.86
2023-07-18T13:05:37.626Z,29.93
2023-07-18T13:07:41.149Z,29.94
2023-07-18T13:09:44.585Z,30.02
2023-07-18T13:11:49.121Z,30.02
2023-07-18T13:13:52.802Z,29.98
2023-07-18T13:15:56.026Z,29.90
2023-07-18T13:17:59.192Z,29.78
2023-07-18T13:20:02.413Z,29.65
2023-07-18T13:22:07.774Z,29.51
2023-07-18T13:24:11.382Z,29.49
2023-07-18T13:26:18.681Z,29.54
2023-07-18T13:28:22.449Z,29.59
2023-07-18T13:30:25.785Z,29.65
2023-07-18T13:32:29.158Z,29.69
2023-07-18T13:34:32.348Z,29.74
2023-07-18T13:36:35.834Z,29.81
2023-07-18T13:38:38.374Z,29.87
2023-07-18T13:40:43.330Z,29.86
2023-07-18T13:42:48.299Z,29.86
2023-07-18T13:44:53.522Z,29.89
2023-07-18T13:46:57.003Z,29.90
2023-07-18T13:49:00.225Z,29.91
2023-07-18T13:51:03.918Z,29.93
2023-07-18T13:53:07.197Z,29.91
2023-07-18T13:55:10.763Z,29.87
2023-07-18T13:57:14.027Z,29.89
2023-07-18T13:59:17.258Z,29.90
2023-07-18T14:01:21.825Z,29.94
2023-07-18T14:03:35.391Z,29.91
2023-07-18T14:05:40.024Z,29.90
2023-07-18T14:07:43.109Z,29.93
2023-07-18T14:09:46.234Z,29.89
2023-07-18T14:11:49.543Z,29.82
2023-07-18T14:13:51.760Z,29.72
2023-07-18T14:15:55.778Z,29.67
2023-07-18T14:18:00.467Z,29.60
2023-07-18T14:20:04.897Z,29.55
2023-07-18T14:22:08.431Z,29.57
2023-07-18T14:24:11.546Z,29.59
2023-07-18T14:26:14.768Z,29.54
2023-07-18T14:28:18.876Z,29.50
2023-07-18T14:30:22.348Z,29.52
2023-07-18T14:32:25.572Z,29.62
2023-07-18T14:34:30.271Z,29.71
2023-07-18T14:36:33.544Z,29.77
2023-07-18T14:38:36.965Z,29.82
2023-07-18T14:40:40.046Z,29.84
2023-07-18T14:42:44.392Z,29.86
2023-07-18T14:44:48.369Z,29.82
2023-07-18T14:46:51.810Z,29.73
2023-07-18T14:48:54.980Z,29.65
2023-07-18T14:50:59.604Z,29.62
2023-07-18T14:53:03.013Z,29.67
2023-07-18T14:55:06.968Z,29.72
2023-07-18T14:57:09.566Z,29.76
2023-07-18T14:59:13.360Z,29.77
2023-07-18T15:01:16.543Z,29.84
2023-07-18T15:03:20.016Z,29.82
2023-07-18T15:05:23.486Z,29.79
2023-07-18T15:07:28.850Z,29.78
2023-07-18T15:09:30.956Z,29.76
2023-07-18T15:11:34.141Z,29.74
2023-07-18T15:13:37.482Z,29.67
2023-07-18T15:15:41.426Z,29.56
2023-07-18T15:17:45.676Z,29.49
2023-07-18T15:19:50.669Z,29.44
2023-07-18T15:21:53.850Z,29.43
2023-07-18T15:23:58.599Z,29.47
2023-07-18T15:26:01.877Z,29.51
2023-07-18T15:28:05.373Z,29.60
2023-07-18T15:30:10.417Z,29.69
2023-07-18T15:32:13.617Z,29.74
2023-07-18T15:34:16.747Z,29.72
2023-07-18T15:36:20.157Z,29.64
2023-07-18T15:38:23.753Z,29.65
2023-07-18T15:40:28.369Z,29.62
2023-07-18T15:42:31.510Z,29.61
2023-07-18T15:44:35.124Z,29.61
2023-07-18T15:46:39.552Z,29.56
2023-07-18T15:48:45.386Z,29.51
2023-07-18T15:50:48.834Z,29.46
2023-07-18T15:52:51.925Z,29.39
2023-07-18T15:54:55.050Z,29.35
2023-07-18T15:56:59.564Z,29.35
2023-07-18T15:59:01.700Z,29.34
2023-07-18T16:01:05.201Z,29.33
2023-07-18T16:03:08.536Z,29.30
2023-07-18T16:05:11.733Z,29.26
2023-07-18T16:07:15.316Z,29.24
2023-07-18T16:09:19.145Z,29.24
2023-07-18T16:11:21.292Z,29.24
2023-07-18T16:13:25.816Z,29.20
2023-07-18T16:15:29.009Z,29.17
2023-07-18T16:17:32.228Z,29.15
2023-07-18T16:19:35.477Z,29.14
2023-07-18T16:21:40.256Z,29.12
2023-07-18T16:23:43.464Z,29.14
2023-07-18T16:25:47.741Z,29.16
2023-07-18T16:27:51.007Z,29.14
2023-07-18T16:29:55.503Z,29.17
2023-07-18T16:31:58.910Z,29.20
2023-07-18T16:34:02.454Z,29.21
2023-07-18T16:36:06.727Z,29.21
2023-07-18T16:38:09.939Z,29.21
2023-07-18T16:40:12.669Z,29.22
2023-07-18T16:42:24.074Z,29.22
2023-07-18T16:44:28.015Z,29.21
2023-07-18T16:46:33.318Z,29.17
2023-07-18T16:48:36.671Z,29.15
2023-07-18T16:50:39.903Z,29.03
2023-07-18T16:52:43.205Z,28.85
2023-07-18T16:54:46.452Z,28.83
2023-07-18T16:56:49.548Z,28.82
2023-07-18T16:58:52.727Z,28.82
2023-07-18T17:00:55.994Z,28.79
2023-07-18T17:03:00.601Z,28.76
2023-07-18T17:05:04.369Z,28.74
2023-07-18T17:07:08.260Z,28.64
2023-07-18T17:09:11.383Z,28.64
2023-07-18T17:11:13.606Z,28.64
2023-07-18T17:13:16.676Z,28.62
2023-07-18T17:15:19.839Z,28.64
2023-07-18T17:17:23.142Z,28.66
2023-07-18T17:19:27.807Z,28.60
2023-07-18T17:21:31.170Z,28.57
2023-07-18T17:23:34.263Z,28.56
2023-07-18T17:25:37.464Z,28.55
2023-07-18T17:27:39.658Z,28.46
2023-07-18T17:29:42.792Z,28.41
2023-07-18T17:31:46.010Z,28.36
2023-07-18T17:33:49.204Z,28.30
2023-07-18T17:35:53.654Z,28.28
2023-07-18T17:37:56.689Z,28.26
2023-07-18T17:40:01.818Z,28.26
2023-07-18T17:42:08.362Z,28.26
2023-07-18T17:44:11.933Z,28.25
2023-07-18T17:46:15.117Z,28.25
2023-07-18T17:48:18.724Z,28.23
2023-07-18T17:50:22.136Z,28.21
2023-07-18T17:52:27.220Z,28.15
2023-07-18T17:54:30.402Z,27.95
2023-07-18T17:56:33.695Z,27.76
2023-07-18T17:58:37.179Z,27.68
2023-07-18T18:00:39.394Z,27.67
2023-07-18T18:02:42.654Z,27.73
2023-07-18T18:04:47.885Z,27.81
2023-07-18T18:06:51.216Z,27.87
2023-07-18T18:08:56.107Z,27.87
2023-07-18T18:10:59.261Z,27.84
2023-07-18T18:13:02.487Z,27.78
2023-07-18T18:15:06.374Z,27.72
2023-07-18T18:17:09.564Z,27.70
2023-07-18T18:19:11.674Z,27.68
2023-07-18T18:21:14.870Z,27.71
2023-07-18T18:23:31.895Z,27.72
2023-07-18T18:25:42.906Z,27.66
2023-07-18T18:27:46.173Z,27.61
2023-07-18T18:29:49.580Z,27.57
2023-07-18T18:31:52.848Z,27.52
2023-07-18T18:33:56.042Z,27.48
2023-07-18T18:36:00.215Z,27.45
2023-07-18T18:38:03.306Z,27.41
2023-07-18T18:40:07.524Z,27.32
2023-07-18T18:42:11.975Z,27.23
2023-07-18T18:44:15.457Z,27.08
2023-07-18T18:46:18.672Z,26.92
2023-07-18T18:48:23.224Z,26.76
2023-07-18T18:50:26.512Z,26.57
2023-07-18T18:52:29.585Z,26.50
2023-07-18T18:54:32.734Z,26.48
2023-07-18T18:56:39.484Z,26.47
2023-07-18T18:58:45.402Z,26.50
2023-07-18T19:00:48.622Z,26.53
2023-07-18T19:02:51.854Z,26.56
2023-07-18T19:04:55.474Z,26.56
2023-07-18T19:06:58.607Z,26.50
2023-07-18T19:09:04.393Z,26.44
2023-07-18T19:11:21.833Z,26.35
2023-07-18T19:13:25.353Z,26.32
2023-07-18T19:15:29.926Z,26.28
2023-07-18T19:17:33.305Z,26.27
2023-07-18T19:19:38.951Z,26.25
2023-07-18T19:21:42.180Z,26.25
2023-07-18T19:23:45.499Z,26.22
2023-07-18T19:25:48.962Z,26.20
2023-07-18T19:27:52.565Z,26.15
2023-07-18T19:29:55.694Z,26.14
2023-07-18T19:32:00.565Z,26.16
2023-07-18T19:34:03.726Z,26.16
2023-07-18T19:36:08.095Z,26.12
2023-07-18T19:38:11.259Z,25.98
2023-07-18T19:40:16.767Z,25.81
2023-07-18T19:42:19.978Z,25.59
2023-07-18T19:44:23.146Z,25.27
2023-07-18T19:46:26.456Z,24.90
2023-07-18T19:48:31.016Z,24.76
2023-07-18T19:50:34.137Z,24.62
2023-07-18T19:52:37.406Z,24.58
2023-07-18T19:54:40.525Z,24.57
2023-07-18T19:56:44.311Z,24.55
2023-07-18T19:58:47.570Z,24.52
2023-07-18T20:00:50.628Z,24.30
2023-07-18T20:02:54.269Z,24.10
2023-07-18T20:04:58.823Z,23.79
2023-07-18T20:07:01.181Z,23.70
2023-07-18T20:09:04.753Z,23.79
2023-07-18T20:11:08.049Z,23.90
2023-07-18T20:13:11.356Z,23.98
2023-07-18T20:15:14.702Z,24.02
2023-07-18T20:17:17.923Z,24.08
2023-07-18T20:19:21.143Z,24.11
2023-07-18T20:21:24.769Z,24.09
2023-07-18T20:23:28.366Z,24.07
2023-07-18T20:25:32.550Z,24.04
2023-07-18T20:27:38.855Z,24.04
2023-07-18T20:29:44.296Z,24.08
2023-07-18T20:31:47.612Z,24.12
2023-07-18T20:33:51.071Z,24.15
2023-07-18T20:35:54.467Z,24.18
2023-07-18T20:37:58.662Z,24.19
2023-07-18T20:40:05.227Z,24.21
2023-07-18T20:42:08.910Z,24.20
2023-07-18T20:44:12.343Z,24.21
2023-07-18T20:46:18.073Z,24.20
2023-07-18T20:48:21.351Z,24.20
2023-07-18T20:50:24.615Z,24.18
2023-07-18T20:52:27.849Z,24.15
2023-07-18T20:54:36.018Z,24.15
2023-07-18T20:56:39.320Z,24.11
2023-07-18T20:58:42.337Z,24.08
2023-07-18T21:00:45.794Z,24.03
2023-07-18T21:02:48.929Z,24.02
2023-07-18T21:04:53.352Z,23.97
2023-07-18T21:06:56.398Z,23.93
2023-07-18T21:09:01.234Z,23.89
2023-07-18T21:11:05.780Z,23.85
2023-07-18T21:13:09.396Z,23.80
2023-07-18T21:15:12.980Z,23.76
2023-07-18T21:17:16.483Z,23.74
2023-07-18T21:19:20.066Z,23.66
2023-07-18T21:21:23.453Z,23.58
2023-07-18T21:23:26.945Z,23.51
2023-07-18T21:25:30.466Z,23.47
2023-07-18T21:27:35.437Z,23.45
2023-07-18T21:29:38.641Z,23.42
2023-07-18T21:31:41.883Z,23.36
2023-07-18T21:33:45.130Z,23.30
2023-07-18T21:35:48.309Z,23.26
2023-07-18T21:37:50.516Z,23.23
2023-07-18T21:39:53.717Z,23.19
2023-07-18T21:41:57.052Z,23.14
2023-07-18T21:44:02.733Z,23.10
2023-07-18T21:46:06.154Z,23.10
2023-07-18T21:48:09.564Z,23.09
2023-07-18T21:50:13.317Z,23.09
2023-07-18T21:52:15.988Z,23.07
2023-07-18T21:54:19.407Z,23.06
2023-07-18T21:56:22.516Z,23.05
2023-07-18T21:58:26.412Z,23.04
2023-07-18T22:00:30.853Z,22.99
2023-07-18T22:02:34.225Z,22.95
2023-07-18T22:04:37.531Z,22.92
2023-07-18T22:06:40.790Z,22.90
2023-07-18T22:08:44.095Z,22.88
2023-07-18T22:10:47.204Z,22.87
2023-07-18T22:12:50.376Z,22.85
2023-07-18T22:14:53.477Z,22.82
2023-07-18T22:16:58.128Z,22.78
2023-07-18T22:19:00.237Z,22.79
2023-07-18T22:21:04.510Z,22.74
2023-07-18T22:23:08.762Z,22.71
2023-07-18T22:25:11.969Z,22.64
2023-07-18T22:27:15.194Z,22.57
2023-07-18T22:29:18.299Z,22.51
2023-07-18T22:31:20.713Z,22.46
2023-07-18T22:33:25.327Z,22.44
2023-07-18T22:35:28.684Z,22.40
2023-07-18T22:37:32.561Z,22.40
2023-07-18T22:39:37.855Z,22.41
2023-07-18T22:41:42.134Z,22.42
2023-07-18T22:43:44.236Z,22.40
2023-07-18T22:45:48.300Z,22.36
2023-07-18T22:47:50.626Z,22.35
2023-07-18T22:49:55.404Z,22.34
2023-07-18T22:51:58.478Z,22.34
2023-07-18T22:54:01.558Z,22.36
2023-07-18T22:56:04.778Z,22.35
2023-07-18T22:58:07.861Z,22.33
2023-07-18T23:00:11.316Z,22.31
2023-07-18T23:02:14.436Z,22.27
2023-07-18T23:04:16.598Z,22.24
2023-07-18T23:06:21.161Z,22.23
2023-07-18T23:08:24.223Z,22.21
2023-07-18T23:10:27.289Z,22.19
2023-07-18T23:12:30.437Z,22.18
2023-07-18T23:14:33.662Z,22.16
2023-07-18T23:16:36.937Z,22.14
2023-07-18T23:18:40.078Z,22.12
2023-07-18T23:20:43.090Z,22.12
2023-07-18T23:22:47.547Z,22.06
2023-07-18T23:24:50.770Z,21.98
2023-07-18T23:26:52.933Z,21.91
2023-07-18T23:28:56.085Z,21.86
2023-07-18T23:30:59.293Z,21.82
2023-07-18T23:33:01.561Z,21.82
2023-07-18T23:35:05.280Z,21.80
2023-07-18T23:37:08.380Z,21.77
2023-07-18T23:39:16.376Z,21.73
2023-07-18T23:41:19.573Z,21.71
2023-07-18T23:43:25.198Z,21.70
2023-07-18T23:45:29.193Z,21.70
2023-07-18T23:47:32.304Z,21.74
2023-07-18T23:49:35.545Z,21.74
2023-07-18T23:51:38.647Z,21.71
2023-07-18T23:53:40.800Z,21.68
2023-07-18T23:55:46.968Z,21.62
2023-07-18T23:57:50.157Z,21.59
2023-07-18T23:59:53.442Z,21.55
